createdAt,value
2022-11-20T00:01:15.662Z,-5.20
2022-11-20T00:03:19.606Z,-5.22
2022-11-20T00:05:22.472Z,-5.19
2022-11-20T00:07:38.554Z,-5.20
2022-11-20T00:09:50.773Z,-5.21
2022-11-20T00:11:52.619Z,-5.18
2022-11-20T00:13:58.201Z,-5.17
2022-11-20T00:16:19.865Z,-5.13
2022-11-20T00:18:23.675Z,-5.22
2022-11-20T00:20:29.723Z,-5.14
2022-11-20T00:22:34.642Z,-5.13
2022-11-20T00:24:41.664Z,-5.17
2022-11-20T00:26:45.355Z,-5.04
2022-11-20T00:29:01.486Z,-5.05
2022-11-20T00:31:14.339Z,-4.97
2022-11-20T00:33:16.172Z,-4.94
2022-11-20T00:35:19.330Z,-4.94
2022-11-20T00:37:21.254Z,-4.85
2022-11-20T00:39:25.131Z,-4.78
2022-11-20T00:41:35.042Z,-4.79
2022-11-20T00:43:37.923Z,-4.80
2022-11-20T00:45:39.736Z,-4.81
2022-11-20T00:47:41.602Z,-4.75
2022-11-20T00:49:43.536Z,-4.76
2022-11-20T00:51:45.390Z,-4.75
2022-11-20T00:53:47.769Z,-4.74
2022-11-20T00:55:55.997Z,-4.69
2022-11-20T00:57:57.780Z,-4.71
2022-11-20T00:59:59.596Z,-4.69
2022-11-20T01:02:01.396Z,-4.74
2022-11-20T01:04:04.651Z,-4.72
2022-11-20T01:06:13.551Z,-4.65
2022-11-20T01:08:15.351Z,-4.59
2022-11-20T01:10:18.538Z,-4.58
2022-11-20T01:12:20.415Z,-4.53
2022-11-20T01:14:25.246Z,-4.55
2022-11-20T01:16:30.373Z,-4.47
2022-11-20T01:18:34.028Z,-4.48
2022-11-20T01:20:37.177Z,-4.50
2022-11-20T01:22:40.448Z,-4.50
2022-11-20T01:24:43.249Z,-4.41
2022-11-20T01:26:46.481Z,-4.47
2022-11-20T01:28:49.372Z,-4.40
2022-11-20T01:30:51.229Z,-4.46
2022-11-20T01:32:54.040Z,-4.41
2022-11-20T01:34:55.880Z,-4.51
2022-11-20T01:36:57.671Z,-4.49
2022-11-20T01:39:02.236Z,-4.48
2022-11-20T01:41:11.817Z,-4.46
2022-11-20T01:43:23.733Z,-4.51
2022-11-20T01:45:47.223Z,-4.51
2022-11-20T01:47:50.871Z,-4.51
2022-11-20T01:50:18.041Z,-4.51
2022-11-20T01:52:43.901Z,-4.50
2022-11-20T01:54:59.897Z,-4.46
2022-11-20T01:57:03.057Z,-4.43
2022-11-20T01:59:08.425Z,-4.48
2022-11-20T02:01:12.769Z,-4.42
2022-11-20T02:03:18.305Z,-4.51
2022-11-20T02:05:23.213Z,-4.51
2022-11-20T02:07:25.303Z,-4.49
2022-11-20T02:09:27.778Z,-4.44
2022-11-20T02:11:31.892Z,-4.37
2022-11-20T02:13:46.971Z,-4.35
2022-11-20T02:15:50.738Z,-4.46
2022-11-20T02:17:58.512Z,-4.46
2022-11-20T02:20:00.384Z,-4.53
2022-11-20T02:22:13.101Z,-4.46
2022-11-20T02:24:22.761Z,-4.52
2022-11-20T02:26:28.625Z,-4.55
2022-11-20T02:28:37.851Z,-4.48
2022-11-20T02:30:39.873Z,-4.48
2022-11-20T02:32:41.841Z,-4.52
2022-11-20T02:34:49.912Z,-4.59
2022-11-20T02:36:58.740Z,-4.62
2022-11-20T02:39:00.741Z,-4.56
2022-11-20T02:41:02.572Z,-4.55
2022-11-20T02:43:04.369Z,-4.52
2022-11-20T02:45:07.398Z,-4.53
2022-11-20T02:47:19.334Z,-4.54
2022-11-20T02:49:21.531Z,-4.61
2022-11-20T02:51:25.070Z,-4.63
2022-11-20T02:53:28.904Z,-4.65
2022-11-20T02:55:40.250Z,-4.57
2022-11-20T02:57:43.066Z,-4.57
2022-11-20T02:59:44.915Z,-4.54
2022-11-20T03:01:46.769Z,-4.56
2022-11-20T03:04:13.557Z,-4.57
2022-11-20T03:06:17.446Z,-4.60
2022-11-20T03:08:19.293Z,-4.60
2022-11-20T03:10:21.113Z,-4.65
2022-11-20T03:12:22.928Z,-4.61
2022-11-20T03:14:24.707Z,-4.69
2022-11-20T03:16:33.698Z,-4.90
2022-11-20T03:18:36.588Z,-4.96
2022-11-20T03:20:38.446Z,-5.00
2022-11-20T03:22:42.336Z,-5.04
2022-11-20T03:24:50.290Z,-5.10
2022-11-20T03:26:52.075Z,-5.15
2022-11-20T03:28:58.736Z,-5.17
2022-11-20T03:31:10.221Z,-5.19
2022-11-20T03:33:12.019Z,-5.30
2022-11-20T03:35:13.820Z,-5.26
2022-11-20T03:37:16.705Z,-5.28
2022-11-20T03:39:20.657Z,-5.28
2022-11-20T03:41:37.023Z,-5.35
2022-11-20T03:43:39.532Z,-5.37
2022-11-20T03:45:41.405Z,-5.30
2022-11-20T03:47:47.573Z,-5.34
2022-11-20T03:49:51.213Z,-5.39
2022-11-20T03:51:53.985Z,-5.41
2022-11-20T03:53:59.246Z,-5.47
2022-11-20T03:56:01.013Z,-5.46
2022-11-20T03:58:02.942Z,-5.55
2022-11-20T04:00:06.015Z,-5.55
2022-11-20T04:02:07.894Z,-5.62
2022-11-20T04:04:09.883Z,-5.65
2022-11-20T04:06:18.620Z,-5.69
2022-11-20T04:08:20.440Z,-5.79
2022-11-20T04:10:28.526Z,-5.80
2022-11-20T04:12:38.233Z,-5.95
2022-11-20T04:14:40.268Z,-5.88
2022-11-20T04:16:42.992Z,-5.95
2022-11-20T04:18:45.253Z,-5.95
2022-11-20T04:20:48.046Z,-6.06
2022-11-20T04:22:49.932Z,-6.09
2022-11-20T04:24:53.789Z,-6.09
2022-11-20T04:26:55.701Z,-6.12
2022-11-20T04:29:00.375Z,-6.21
2022-11-20T04:31:12.984Z,-6.10
2022-11-20T04:33:14.818Z,-6.12
2022-11-20T04:35:16.669Z,-6.22
2022-11-20T04:37:31.336Z,-6.24
2022-11-20T04:39:34.197Z,-6.33
2022-11-20T04:41:37.536Z,-6.34
2022-11-20T04:43:41.347Z,-6.38
2022-11-20T04:45:44.204Z,-6.49
2022-11-20T04:47:52.048Z,-6.48
2022-11-20T04:49:53.996Z,-6.51
2022-11-20T04:51:55.882Z,-6.62
2022-11-20T04:53:57.790Z,-6.66
2022-11-20T04:56:08.946Z,-6.54
2022-11-20T04:58:17.466Z,-6.52
2022-11-20T05:00:21.472Z,-6.54
2022-11-20T05:02:23.327Z,-6.51
2022-11-20T05:04:28.746Z,-6.43
2022-11-20T05:06:33.333Z,-6.45
2022-11-20T05:08:35.667Z,-6.44
2022-11-20T05:10:37.536Z,-6.45
2022-11-20T05:12:39.374Z,-6.56
2022-11-20T05:14:45.500Z,-6.60
2022-11-20T05:16:47.368Z,-6.57
2022-11-20T05:18:52.940Z,-6.61
2022-11-20T05:20:58.922Z,-6.61
2022-11-20T05:23:03.283Z,-6.61
2022-11-20T05:25:15.237Z,-6.66
2022-11-20T05:27:17.086Z,-6.71
2022-11-20T05:29:19.103Z,-6.70
2022-11-20T05:31:27.061Z,-6.64
2022-11-20T05:33:31.037Z,-6.63
2022-11-20T05:35:35.966Z,-6.65
2022-11-20T05:37:37.787Z,-6.63
2022-11-20T05:39:39.588Z,-6.77
2022-11-20T05:41:47.296Z,-6.72
2022-11-20T05:43:51.624Z,-6.79
2022-11-20T05:45:57.443Z,-6.78
2022-11-20T05:48:03.863Z,-6.76
2022-11-20T05:50:06.163Z,-6.82
2022-11-20T05:52:08.095Z,-6.87
2022-11-20T05:54:17.034Z,-6.89
2022-11-20T05:56:21.649Z,-6.91
2022-11-20T05:58:23.546Z,-6.86
2022-11-20T06:00:29.428Z,-6.85
2022-11-20T06:02:31.265Z,-6.94
2022-11-20T06:04:34.090Z,-6.84
2022-11-20T06:06:37.008Z,-6.91
2022-11-20T06:08:38.839Z,-6.92
2022-11-20T06:10:40.650Z,-6.93
2022-11-20T06:12:42.506Z,-6.95
2022-11-20T06:14:44.418Z,-7.00
2022-11-20T06:16:46.232Z,-6.94
2022-11-20T06:18:48.571Z,-6.96
2022-11-20T06:20:50.374Z,-6.96
2022-11-20T06:22:52.285Z,-6.98
2022-11-20T06:24:57.236Z,-6.94
2022-11-20T06:26:59.036Z,-6.92
2022-11-20T06:29:00.841Z,-6.93
2022-11-20T06:31:03.190Z,-6.96
2022-11-20T06:33:06.041Z,-6.96
2022-11-20T06:35:08.325Z,-6.94
2022-11-20T06:37:18.230Z,-6.91
2022-11-20T06:39:20.378Z,-6.91
2022-11-20T06:41:30.557Z,-6.87
2022-11-20T06:43:37.662Z,-6.89
2022-11-20T06:45:39.489Z,-6.85
2022-11-20T06:47:42.387Z,-6.85
2022-11-20T06:49:44.231Z,-6.80
2022-11-20T06:51:49.196Z,-6.80
2022-11-20T06:53:52.092Z,-6.80
2022-11-20T06:55:57.938Z,-6.75
2022-11-20T06:57:59.880Z,-6.74
2022-11-20T07:00:01.846Z,-6.76
2022-11-20T07:02:03.892Z,-6.75
2022-11-20T07:04:06.873Z,-6.72
2022-11-20T07:06:16.899Z,-6.68
2022-11-20T07:08:18.712Z,-6.64
2022-11-20T07:10:20.535Z,-6.64
2022-11-20T07:12:22.419Z,-6.69
2022-11-20T07:14:39.370Z,-6.67
2022-11-20T07:16:41.273Z,-6.65
2022-11-20T07:18:50.211Z,-6.56
2022-11-20T07:20:56.579Z,-6.35
2022-11-20T07:22:59.179Z,-6.34
2022-11-20T07:25:01.024Z,-6.28
2022-11-20T07:27:02.835Z,-6.25
2022-11-20T07:29:04.782Z,-6.20
2022-11-20T07:31:19.276Z,-6.08
2022-11-20T07:33:21.695Z,-6.05
2022-11-20T07:35:25.613Z,-6.01
2022-11-20T07:37:35.789Z,-5.99
2022-11-20T07:39:38.679Z,-5.75
2022-11-20T07:41:40.612Z,-5.45
2022-11-20T07:43:42.787Z,-5.26
2022-11-20T07:45:44.639Z,-4.87
2022-11-20T07:47:49.214Z,-4.96
2022-11-20T07:49:51.057Z,-4.74
2022-11-20T07:52:04.161Z,-4.33
2022-11-20T07:54:11.802Z,-4.31
2022-11-20T07:56:15.260Z,-4.19
2022-11-20T07:58:24.226Z,-4.16
2022-11-20T08:00:28.192Z,-3.94
2022-11-20T08:02:42.294Z,-4.24
2022-11-20T08:04:46.216Z,-3.94
2022-11-20T08:06:49.075Z,-3.52
2022-11-20T08:08:57.992Z,-3.38
2022-11-20T08:11:18.433Z,-3.20
2022-11-20T08:13:40.061Z,-3.31
2022-11-20T08:15:43.108Z,-2.91
2022-11-20T08:17:56.971Z,-2.95
2022-11-20T08:20:08.465Z,-2.49
2022-11-20T08:22:35.565Z,-2.76
2022-11-20T08:24:44.235Z,-3.10
2022-11-20T08:26:46.208Z,-3.35
2022-11-20T08:28:49.070Z,-3.01
2022-11-20T08:30:59.592Z,-1.82
2022-11-20T08:33:19.879Z,-2.06
2022-11-20T08:35:23.305Z,-1.73
2022-11-20T08:37:42.629Z,-1.56
2022-11-20T08:39:52.041Z,-1.27
2022-11-20T08:41:59.869Z,-1.22
2022-11-20T08:44:20.067Z,-1.57
2022-11-20T08:46:27.993Z,-1.41
2022-11-20T08:48:29.910Z,-0.88
2022-11-20T08:50:33.636Z,-1.08
2022-11-20T08:52:40.087Z,-0.96
2022-11-20T08:54:50.750Z,-0.96
2022-11-20T08:56:57.841Z,-0.51
2022-11-20T08:59:31.594Z,-0.63
2022-11-20T09:01:33.634Z,-0.78
2022-11-20T09:03:36.526Z,-1.08
2022-11-20T09:05:44.457Z,-1.06
2022-11-20T09:07:47.311Z,-0.98
2022-11-20T09:10:22.750Z,-0.78
2022-11-20T09:12:30.603Z,-0.39
2022-11-20T09:14:42.931Z,-0.78
2022-11-20T09:16:47.604Z,-0.95
2022-11-20T09:19:13.488Z,-0.90
2022-11-20T09:21:24.123Z,-0.65
2022-11-20T09:23:27.294Z,-0.62
2022-11-20T09:25:35.076Z,-0.63
2022-11-20T09:27:45.306Z,-0.75
2022-11-20T09:29:55.250Z,-0.46
2022-11-20T09:31:59.137Z,-0.70
2022-11-20T09:34:00.967Z,-0.77
2022-11-20T09:36:05.097Z,-0.58
2022-11-20T09:38:10.151Z,-0.44
2022-11-20T09:40:41.641Z,-0.65
2022-11-20T09:43:25.008Z,-0.66
2022-11-20T09:46:09.527Z,-0.47
2022-11-20T09:48:49.801Z,-0.38
2022-11-20T09:51:20.333Z,-0.31
2022-11-20T09:53:56.408Z,-0.36
2022-11-20T09:56:06.165Z,-0.46
2022-11-20T09:58:22.537Z,-0.61
2022-11-20T10:00:31.631Z,-0.49
2022-11-20T10:02:43.218Z,-0.66
2022-11-20T10:04:53.752Z,-0.50
2022-11-20T10:07:38.284Z,-0.34
2022-11-20T10:09:51.010Z,-0.39
2022-11-20T10:12:11.288Z,-0.39
2022-11-20T10:14:33.606Z,-0.44
2022-11-20T10:17:05.150Z,-0.33
2022-11-20T10:23:05.573Z,0.00
2022-11-20T10:25:19.667Z,0.01
2022-11-20T10:27:23.753Z,0.24
2022-11-20T10:29:40.840Z,0.72
2022-11-20T10:31:52.359Z,0.50
2022-11-20T10:34:49.760Z,0.65
2022-11-20T10:37:04.920Z,0.75
2022-11-20T10:39:37.272Z,0.52
2022-11-20T10:45:38.159Z,0.43
2022-11-20T10:47:53.110Z,0.41
2022-11-20T10:50:14.497Z,0.41
2022-11-20T10:52:58.601Z,0.47
2022-11-20T10:55:35.490Z,0.67
2022-11-20T10:58:09.250Z,1.01
2022-11-20T11:00:13.702Z,1.14
2022-11-20T11:02:20.565Z,0.88
2022-11-20T11:04:33.959Z,0.93
2022-11-20T11:06:48.485Z,1.10
2022-11-20T11:09:17.122Z,0.79
2022-11-20T11:11:32.258Z,0.77
2022-11-20T11:13:34.178Z,0.86
2022-11-20T11:15:42.378Z,0.88
2022-11-20T11:17:48.978Z,1.07
2022-11-20T11:20:05.324Z,0.86
2022-11-20T11:22:17.189Z,0.79
2022-11-20T11:24:44.694Z,0.65
2022-11-20T11:27:11.279Z,0.61
2022-11-20T11:29:30.590Z,0.77
2022-11-20T11:31:42.371Z,0.60
2022-11-20T11:33:50.039Z,0.42
2022-11-20T11:36:23.609Z,0.37
2022-11-20T11:38:46.053Z,0.37
2022-11-20T11:40:48.484Z,0.33
2022-11-20T11:42:55.876Z,0.18
2022-11-20T11:45:07.838Z,0.33
2022-11-20T11:47:25.764Z,0.30
2022-11-20T11:49:32.718Z,0.48
2022-11-20T11:51:52.539Z,0.44
2022-11-20T11:54:01.008Z,0.43
2022-11-20T11:56:18.130Z,0.35
2022-11-20T11:58:48.727Z,0.24
2022-11-20T12:01:30.493Z,0.22
2022-11-20T12:03:38.826Z,0.28
2022-11-20T12:05:46.207Z,0.27
2022-11-20T12:08:12.728Z,0.33
2022-11-20T12:10:49.689Z,0.39
2022-11-20T12:13:02.084Z,0.43
2022-11-20T12:15:26.752Z,0.36
2022-11-20T12:17:35.287Z,0.30
2022-11-20T12:19:41.263Z,0.26
2022-11-20T12:22:23.936Z,0.22
2022-11-20T12:24:41.895Z,0.24
2022-11-20T12:27:14.584Z,0.25
2022-11-20T12:29:38.394Z,0.26
2022-11-20T12:31:55.824Z,0.16
2022-11-20T12:34:20.437Z,0.17
2022-11-20T12:37:00.037Z,0.24
2022-11-20T12:39:42.686Z,0.19
2022-11-20T12:42:33.697Z,0.16
2022-11-20T12:45:03.805Z,0.22
2022-11-20T12:47:42.973Z,0.21
2022-11-20T12:50:10.936Z,0.14
2022-11-20T12:52:51.259Z,0.10
2022-11-20T12:55:35.124Z,0.13
2022-11-20T12:58:06.011Z,0.23
2022-11-20T13:00:09.043Z,0.27
2022-11-20T13:02:32.296Z,0.29
2022-11-20T13:04:38.304Z,0.20
2022-11-20T13:06:58.117Z,0.20
2022-11-20T13:09:12.636Z,0.13
2022-11-20T13:11:22.599Z,0.08
2022-11-20T13:13:58.046Z,0.17
2022-11-20T13:16:16.954Z,0.16
2022-11-20T13:18:19.843Z,0.20
2022-11-20T13:20:42.106Z,0.18
2022-11-20T13:23:07.237Z,0.16
2022-11-20T13:25:27.959Z,0.07
2022-11-20T13:27:32.572Z,0.10
2022-11-20T13:30:22.955Z,0.06
2022-11-20T13:32:26.345Z,0.09
2022-11-20T13:34:31.535Z,0.04
2022-11-20T13:36:54.555Z,-0.06
2022-11-20T13:39:04.505Z,-0.10
2022-11-20T13:41:28.289Z,-0.14
2022-11-20T13:43:54.707Z,-0.23
2022-11-20T13:46:06.197Z,-0.27
2022-11-20T13:48:57.413Z,-0.23
2022-11-20T13:51:32.529Z,-0.22
2022-11-20T13:54:13.995Z,-0.26
2022-11-20T13:56:51.664Z,-0.34
2022-11-20T13:59:22.380Z,-0.40
2022-11-20T14:01:47.422Z,-0.38
2022-11-20T14:04:09.879Z,-0.43
2022-11-20T14:06:30.117Z,-0.34
2022-11-20T14:08:52.030Z,-0.33
2022-11-20T14:11:13.978Z,-0.32
2022-11-20T14:13:22.153Z,-0.39
2022-11-20T14:15:33.335Z,-0.35
2022-11-20T14:17:46.346Z,-0.38
2022-11-20T14:19:54.527Z,-0.40
2022-11-20T14:22:23.563Z,-0.38
2022-11-20T14:24:40.190Z,-0.39
2022-11-20T14:26:48.552Z,-0.40
2022-11-20T14:28:53.875Z,-0.39
2022-11-20T14:31:18.749Z,-0.43
2022-11-20T14:33:46.746Z,-0.47
2022-11-20T14:35:56.291Z,-0.41
2022-11-20T14:38:01.521Z,-0.40
2022-11-20T14:40:04.603Z,-0.43
2022-11-20T14:42:23.647Z,-0.48
2022-11-20T14:44:34.925Z,-0.50
2022-11-20T14:46:38.309Z,-0.53
2022-11-20T14:48:52.802Z,-0.51
2022-11-20T14:50:59.526Z,-0.52
2022-11-20T14:53:02.874Z,-0.53
2022-11-20T14:55:12.851Z,-0.57
2022-11-20T14:57:55.742Z,-0.62
2022-11-20T15:00:17.860Z,-0.65
2022-11-20T15:02:20.353Z,-0.67
2022-11-20T15:04:51.016Z,-0.70
2022-11-20T15:06:58.431Z,-0.69
2022-11-20T15:09:15.821Z,-0.68
2022-11-20T15:11:35.350Z,-0.67
2022-11-20T15:13:45.022Z,-0.71
2022-11-20T15:15:57.740Z,-0.83
2022-11-20T15:18:00.893Z,-0.81
2022-11-20T15:20:08.257Z,-0.83
2022-11-20T15:22:14.978Z,-0.82
2022-11-20T15:24:23.807Z,-0.83
2022-11-20T15:26:33.336Z,-0.85
2022-11-20T15:28:51.568Z,-0.87
2022-11-20T15:30:56.898Z,-0.95
2022-11-20T15:32:59.140Z,-1.03
2022-11-20T15:35:03.328Z,-1.11
2022-11-20T15:37:06.465Z,-1.08
2022-11-20T15:39:30.424Z,-1.17
2022-11-20T15:41:36.970Z,-1.27
2022-11-20T15:43:42.361Z,-1.42
2022-11-20T15:45:46.986Z,-1.52
2022-11-20T15:47:50.145Z,-1.63
2022-11-20T15:50:00.783Z,-1.60
2022-11-20T15:52:03.919Z,-1.62
2022-11-20T15:54:27.542Z,-1.69
2022-11-20T15:56:36.213Z,-1.74
2022-11-20T15:58:39.961Z,-1.77
2022-11-20T16:00:42.943Z,-1.83
2022-11-20T16:02:45.950Z,-1.84
2022-11-20T16:04:55.839Z,-1.88
2022-11-20T16:06:59.677Z,-1.90
2022-11-20T16:09:05.139Z,-1.99
2022-11-20T16:11:07.676Z,-2.07
2022-11-20T16:13:35.047Z,-2.01
2022-11-20T16:15:48.029Z,-2.11
2022-11-20T16:17:51.850Z,-2.12
2022-11-20T16:20:04.199Z,-2.08
2022-11-20T16:22:07.603Z,-2.20
2022-11-20T16:24:13.981Z,-2.20
2022-11-20T16:26:33.229Z,-2.19
2022-11-20T16:28:35.822Z,-2.30
2022-11-20T16:30:56.919Z,-2.41
2022-11-20T16:33:17.517Z,-2.45
2022-11-20T16:35:21.159Z,-2.42
2022-11-20T16:37:27.968Z,-2.46
2022-11-20T16:39:32.351Z,-2.51
2022-11-20T16:41:36.268Z,-2.53
2022-11-20T16:43:38.797Z,-2.55
2022-11-20T16:45:47.547Z,-2.56
2022-11-20T16:48:01.053Z,-2.62
2022-11-20T16:50:08.146Z,-2.68
2022-11-20T16:52:35.800Z,-2.66
2022-11-20T16:54:40.076Z,-2.73
2022-11-20T16:56:54.044Z,-2.71
2022-11-20T16:59:14.193Z,-2.78
2022-11-20T17:01:22.365Z,-2.83
2022-11-20T17:03:26.101Z,-2.73
2022-11-20T17:05:44.011Z,-2.80
2022-11-20T17:07:48.355Z,-2.86
2022-11-20T17:09:51.153Z,-2.90
2022-11-20T17:12:11.959Z,-2.94
2022-11-20T17:14:14.683Z,-2.89
2022-11-20T17:16:23.211Z,-2.90
2022-11-20T17:18:28.334Z,-2.93
2022-11-20T17:20:32.927Z,-2.92
2022-11-20T17:22:35.917Z,-2.97
2022-11-20T17:24:41.810Z,-2.97
2022-11-20T17:26:50.641Z,-3.12
2022-11-20T17:29:02.062Z,-3.14
2022-11-20T17:31:18.378Z,-3.14
2022-11-20T17:33:20.735Z,-3.16
2022-11-20T17:35:23.289Z,-3.23
2022-11-20T17:37:27.053Z,-3.12
2022-11-20T17:39:41.872Z,-3.22
2022-11-20T17:42:12.111Z,-3.26
2022-11-20T17:44:15.858Z,-3.27
2022-11-20T17:46:22.395Z,-3.23
2022-11-20T17:48:31.039Z,-3.27
2022-11-20T17:50:38.588Z,-3.28
2022-11-20T17:52:44.540Z,-3.31
2022-11-20T17:54:47.068Z,-3.33
2022-11-20T17:57:15.502Z,-3.37
2022-11-20T17:59:19.474Z,-3.45
2022-11-20T18:01:31.820Z,-3.48
2022-11-20T18:03:35.874Z,-3.50
2022-11-20T18:05:39.059Z,-3.53
2022-11-20T18:07:53.769Z,-3.52
2022-11-20T18:10:06.237Z,-3.51
2022-11-20T18:12:17.026Z,-3.61
2022-11-20T18:14:37.289Z,-3.58
2022-11-20T18:16:46.973Z,-3.62
2022-11-20T18:18:50.627Z,-3.44
2022-11-20T18:20:56.565Z,-3.63
2022-11-20T18:23:01.045Z,-3.57
2022-11-20T18:25:03.827Z,-3.65
2022-11-20T18:27:09.263Z,-3.71
2022-11-20T18:29:13.719Z,-3.77
2022-11-20T18:31:18.029Z,-3.80
2022-11-20T18:33:23.075Z,-3.76
2022-11-20T18:35:30.484Z,-3.71
2022-11-20T18:37:55.814Z,-3.70
2022-11-20T18:40:08.476Z,-3.71
2022-11-20T18:42:35.448Z,-3.71
2022-11-20T18:44:55.834Z,-3.78
2022-11-20T18:47:14.217Z,-3.80
2022-11-20T18:49:19.280Z,-3.83
2022-11-20T18:51:23.293Z,-3.86
2022-11-20T18:53:27.796Z,-3.87
2022-11-20T18:55:31.546Z,-3.84
2022-11-20T18:57:34.814Z,-3.81
2022-11-20T18:59:47.399Z,-3.86
2022-11-20T19:01:53.498Z,-3.88
2022-11-20T19:03:58.248Z,-3.89
2022-11-20T19:06:16.440Z,-3.88
2022-11-20T19:08:18.846Z,-3.85
2022-11-20T19:10:27.538Z,-3.92
2022-11-20T19:12:30.579Z,-3.93
2022-11-20T19:14:35.205Z,-3.92
2022-11-20T19:16:49.379Z,-3.92
2022-11-20T19:18:54.170Z,-3.89
2022-11-20T19:21:15.189Z,-3.94
2022-11-20T19:23:23.748Z,-3.95
2022-11-20T19:25:38.173Z,-3.84
2022-11-20T19:27:41.597Z,-3.85
2022-11-20T19:29:44.116Z,-3.89
2022-11-20T19:31:46.606Z,-3.88
2022-11-20T19:33:54.944Z,-3.87
2022-11-20T19:36:00.255Z,-3.90
2022-11-20T19:38:14.204Z,-3.94
2022-11-20T19:40:23.801Z,-3.86
2022-11-20T19:42:29.393Z,-3.97
2022-11-20T19:44:34.706Z,-3.92
2022-11-20T19:46:43.551Z,-3.89
2022-11-20T19:48:46.645Z,-3.98
2022-11-20T19:50:52.070Z,-3.99
2022-11-20T19:52:58.887Z,-3.95
2022-11-20T19:55:04.918Z,-4.03
2022-11-20T19:57:07.741Z,-4.12
2022-11-20T19:59:15.819Z,-4.04
2022-11-20T20:01:27.600Z,-4.25
2022-11-20T20:03:30.393Z,-4.37
2022-11-20T20:05:36.597Z,-4.43
2022-11-20T20:07:46.649Z,-4.47
2022-11-20T20:09:51.107Z,-4.56
2022-11-20T20:12:04.796Z,-4.48
2022-11-20T20:14:15.475Z,-4.46
2022-11-20T20:16:21.611Z,-4.41
2022-11-20T20:18:24.202Z,-4.36
2022-11-20T20:20:37.720Z,-4.29
2022-11-20T20:22:49.090Z,-4.22
2022-11-20T20:24:54.326Z,-4.11
2022-11-20T20:26:58.273Z,-4.08
2022-11-20T20:29:02.938Z,-4.07
2022-11-20T20:31:15.649Z,-3.95
2022-11-20T20:33:20.475Z,-3.93
2022-11-20T20:35:23.388Z,-3.87
2022-11-20T20:37:26.017Z,-3.81
2022-11-20T20:39:31.376Z,-3.72
2022-11-20T20:41:33.945Z,-3.69
2022-11-20T20:43:57.513Z,-3.65
2022-11-20T20:45:59.926Z,-3.63
2022-11-20T20:48:02.287Z,-3.55
2022-11-20T20:50:10.177Z,-3.56
2022-11-20T20:52:16.718Z,-3.58
2022-11-20T20:54:19.212Z,-3.52
2022-11-20T20:56:21.772Z,-3.52
2022-11-20T20:58:24.819Z,-3.49
2022-11-20T21:00:27.333Z,-3.48
2022-11-20T21:02:29.843Z,-3.51
2022-11-20T21:04:42.413Z,-3.47
2022-11-20T21:06:44.745Z,-3.44
2022-11-20T21:08:49.970Z,-3.45
2022-11-20T21:10:55.208Z,-3.42
2022-11-20T21:12:57.226Z,-3.42
2022-11-20T21:15:00.075Z,-3.41
2022-11-20T21:17:03.393Z,-3.40
2022-11-20T21:19:05.612Z,-3.45
2022-11-20T21:21:28.090Z,-3.46
2022-11-20T21:23:30.730Z,-3.49
2022-11-20T21:25:37.673Z,-3.55
2022-11-20T21:27:39.841Z,-3.61
2022-11-20T21:29:42.718Z,-3.69
2022-11-20T21:31:45.390Z,-3.77
2022-11-20T21:33:48.946Z,-3.71
2022-11-20T21:35:50.868Z,-3.72
2022-11-20T21:37:52.989Z,-3.70
2022-11-20T21:39:55.094Z,-3.69
2022-11-20T21:42:00.176Z,-3.66
2022-11-20T21:46:28.705Z,-3.67
2022-11-20T21:48:33.286Z,-3.63
2022-11-20T21:50:35.667Z,-3.61
2022-11-20T21:52:38.184Z,-3.66
2022-11-20T21:54:40.186Z,-3.63
2022-11-20T21:56:43.428Z,-3.68
2022-11-20T21:58:46.269Z,-3.75
2022-11-20T22:00:48.457Z,-3.75
2022-11-20T22:02:53.625Z,-3.67
2022-11-20T22:04:56.749Z,-3.67
2022-11-20T22:06:58.854Z,-3.62
2022-11-20T22:09:03.123Z,-3.65
2022-11-20T22:11:09.012Z,-3.62
2022-11-20T22:13:29.721Z,-3.68
2022-11-20T22:15:58.849Z,-3.77
2022-11-20T22:18:13.949Z,-3.73
2022-11-20T22:20:19.441Z,-3.79
2022-11-20T22:22:22.450Z,-3.90
2022-11-20T22:24:26.561Z,-3.79
2022-11-20T22:26:40.160Z,-3.82
2022-11-20T22:28:46.386Z,-4.01
2022-11-20T22:30:49.429Z,-4.05
2022-11-20T22:32:54.279Z,-4.09
2022-11-20T22:34:56.159Z,-4.14
2022-11-20T22:36:58.153Z,-4.13
2022-11-20T22:39:02.627Z,-4.08
2022-11-20T22:41:19.723Z,-4.19
2022-11-20T22:43:21.602Z,-4.29
2022-11-20T22:45:26.447Z,-4.37
2022-11-20T22:47:28.277Z,-4.27
2022-11-20T22:49:30.395Z,-4.23
2022-11-20T22:51:39.997Z,-4.18
2022-11-20T22:53:43.082Z,-4.28
2022-11-20T22:55:49.552Z,-4.42
2022-11-20T22:57:51.593Z,-4.46
2022-11-20T22:59:53.432Z,-4.40
2022-11-20T23:01:55.310Z,-4.34
2022-11-20T23:03:59.602Z,-4.40
2022-11-20T23:06:02.217Z,-4.48
2022-11-20T23:08:04.550Z,-4.52
2022-11-20T23:10:10.256Z,-4.61
2022-11-20T23:12:12.092Z,-4.66
2022-11-20T23:14:15.506Z,-4.56
2022-11-20T23:16:20.120Z,-4.53
2022-11-20T23:18:23.308Z,-4.67
2022-11-20T23:20:25.143Z,-4.61
2022-11-20T23:22:27.011Z,-4.67
2022-11-20T23:24:29.266Z,-4.64
2022-11-20T23:26:34.353Z,-4.62
2022-11-20T23:28:36.639Z,-4.65
2022-11-20T23:30:39.586Z,-4.65
2022-11-20T23:32:43.491Z,-4.57
2022-11-20T23:34:45.341Z,-4.52
2022-11-20T23:36:47.281Z,-4.52
2022-11-20T23:38:49.126Z,-4.49
2022-11-20T23:40:52.480Z,-4.46
2022-11-20T23:43:12.746Z,-4.42
2022-11-20T23:45:14.725Z,-4.38
2022-11-20T23:47:16.567Z,-4.34
2022-11-20T23:49:18.620Z,-4.32
2022-11-20T23:51:20.510Z,-4.35
2022-11-20T23:53:23.401Z,-4.37
2022-11-20T23:55:25.234Z,-4.31
2022-11-20T23:57:27.135Z,-4.27
2022-11-20T23:59:29.027Z,-4.25
